RA73750 UMOO-HLLB
Flight info
| Callsign | RA73750 |
|---|---|
| Flight time | N/A |
| Altitude | 45000 |
| Route | DIFTO T346 ASKIL KR806 POKKO KR700 BAMDO DCT RAMUT DCT LAMKO P163 LADIM DCT OBABI G481 LARIN G487 ODIRA/N0499F450 DCT SIN DCT BAG P29 AYT A16 DERYA DCT VAXOS DCT METRU DCT LAB |
| Aircraft | C750/M-SBDE3FGHRWXY/H |
Departure
| Time | N/A |
|---|---|
| Airport | Mogilev Airport (UMOO) |
Arrival
| Time | 2026-05-05 19:26 |
|---|---|
| Airport | Benina International Airport (HLLB) |
| Time | Latitude | Longitude | Altitude | Speed | Heading |
|---|---|---|---|---|---|
| 2026-05-05 15:45 | 50.76454 | 43.19447 | 44959 ft | 499 kts | 160° |
| 2026-05-05 15:46 | 50.69946 | 43.23346 | 44960 ft | 499 kts | 160° |
| 2026-05-05 15:46 | 50.63476 | 43.27210 | 44964 ft | 498 kts | 160° |
| 2026-05-05 15:47 | 50.56971 | 43.31084 | 44964 ft | 498 kts | 160° |
| 2026-05-05 15:47 | 50.50516 | 43.34917 | 44961 ft | 498 kts | 160° |
| 2026-05-05 15:48 | 50.44052 | 43.38744 | 44965 ft | 498 kts | 160° |
| 2026-05-05 15:48 | 50.37570 | 43.42570 | 44963 ft | 498 kts | 160° |
| 2026-05-05 15:49 | 50.31054 | 43.46405 | 44964 ft | 498 kts | 160° |
| 2026-05-05 15:49 | 50.24591 | 43.50198 | 44959 ft | 497 kts | 160° |
| 2026-05-05 15:50 | 50.18135 | 43.53976 | 44954 ft | 497 kts | 160° |
| 2026-05-05 15:50 | 50.11654 | 43.57757 | 44957 ft | 497 kts | 160° |
| 2026-05-05 15:51 | 50.05370 | 43.61413 | 44960 ft | 496 kts | 160° |
| 2026-05-05 15:51 | 49.99141 | 43.65027 | 44959 ft | 496 kts | 160° |
| 2026-05-05 15:52 | 49.92833 | 43.68677 | 44955 ft | 496 kts | 160° |
| 2026-05-05 15:52 | 49.86502 | 43.72329 | 44957 ft | 495 kts | 160° |
| 2026-05-05 15:53 | 49.80301 | 43.75897 | 44954 ft | 495 kts | 160° |
| 2026-05-05 15:53 | 49.74036 | 43.79492 | 44955 ft | 495 kts | 160° |
| 2026-05-05 15:54 | 49.67666 | 43.83136 | 44952 ft | 495 kts | 160° |
| 2026-05-05 15:54 | 49.61448 | 43.86684 | 44952 ft | 495 kts | 160° |
| 2026-05-05 15:55 | 49.55068 | 43.90315 | 44954 ft | 495 kts | 160° |
| 2026-05-05 15:55 | 49.48856 | 43.93850 | 44954 ft | 495 kts | 160° |
| 2026-05-05 15:56 | 49.42518 | 43.97571 | 44956 ft | 495 kts | 160° |
| 2026-05-05 15:56 | 49.36305 | 44.01135 | 44952 ft | 495 kts | 160° |
| 2026-05-05 15:57 | 49.29936 | 44.04823 | 44954 ft | 495 kts | 160° |
| 2026-05-05 15:57 | 49.23727 | 44.08386 | 44950 ft | 495 kts | 160° |
| 2026-05-05 15:58 | 49.17408 | 44.12012 | 44952 ft | 495 kts | 160° |
| 2026-05-05 15:58 | 49.11103 | 44.15619 | 44949 ft | 494 kts | 160° |
| 2026-05-05 15:59 | 49.04795 | 44.19216 | 44953 ft | 494 kts | 160° |
| 2026-05-05 15:59 | 48.98592 | 44.22745 | 44952 ft | 494 kts | 160° |
| 2026-05-05 16:00 | 48.92331 | 44.26296 | 44954 ft | 494 kts | 160° |
| 2026-05-05 16:00 | 48.86003 | 44.29878 | 44959 ft | 493 kts | 160° |
| 2026-05-05 16:01 | 48.79685 | 44.33321 | 44939 ft | 493 kts | 165° |
| 2026-05-05 16:01 | 48.73050 | 44.34584 | 44968 ft | 490 kts | 180° |
| 2026-05-05 16:02 | 48.66437 | 44.34170 | 44974 ft | 490 kts | 181° |
| 2026-05-05 16:02 | 48.59747 | 44.34359 | 44970 ft | 490 kts | 179° |
| 2026-05-05 16:03 | 48.53173 | 44.34218 | 44966 ft | 490 kts | 181° |
| 2026-05-05 16:03 | 48.46487 | 44.34239 | 44966 ft | 490 kts | 179° |
| 2026-05-05 16:04 | 48.39802 | 44.34208 | 44965 ft | 490 kts | 181° |
| 2026-05-05 16:04 | 48.33173 | 44.34166 | 44960 ft | 490 kts | 179° |
| 2026-05-05 16:05 | 48.26602 | 44.34170 | 44963 ft | 489 kts | 180° |
| 2026-05-05 16:05 | 48.19911 | 44.34114 | 44968 ft | 489 kts | 180° |
| 2026-05-05 16:06 | 48.13263 | 44.34116 | 44968 ft | 489 kts | 180° |
| 2026-05-05 16:06 | 48.06532 | 44.34069 | 44965 ft | 489 kts | 180° |
| 2026-05-05 16:07 | 47.99934 | 44.34060 | 44964 ft | 488 kts | 180° |
| 2026-05-05 16:07 | 47.93283 | 44.34024 | 44964 ft | 488 kts | 180° |
| 2026-05-05 16:08 | 47.86738 | 44.34096 | 44964 ft | 488 kts | 179° |
| 2026-05-05 16:08 | 47.80089 | 44.34202 | 44961 ft | 488 kts | 180° |
| 2026-05-05 16:09 | 47.73440 | 44.34262 | 44961 ft | 488 kts | 179° |
| 2026-05-05 16:09 | 47.66781 | 44.34366 | 44963 ft | 487 kts | 180° |
| 2026-05-05 16:10 | 47.60241 | 44.34430 | 44964 ft | 487 kts | 179° |
| 2026-05-05 16:10 | 47.53642 | 44.34525 | 44968 ft | 487 kts | 179° |
| 2026-05-05 16:11 | 47.47015 | 44.34598 | 44964 ft | 487 kts | 179° |
| 2026-05-05 16:12 | 47.33734 | 44.34764 | 44959 ft | 487 kts | 180° |
| 2026-05-05 16:13 | 47.17285 | 44.34968 | 44960 ft | 487 kts | 179° |
| 2026-05-05 16:13 | 47.10644 | 44.35049 | 44959 ft | 487 kts | 180° |
| 2026-05-05 16:14 | 46.97465 | 44.35209 | 44963 ft | 487 kts | 180° |
| 2026-05-05 16:15 | 46.84231 | 44.35282 | 44960 ft | 488 kts | 180° |
| 2026-05-05 16:16 | 46.70994 | 44.35346 | 44964 ft | 488 kts | 180° |
| 2026-05-05 16:17 | 46.61153 | 44.35395 | 44963 ft | 488 kts | 180° |
| 2026-05-05 16:18 | 46.51217 | 44.35436 | 44966 ft | 487 kts | 180° |
| 2026-05-05 16:19 | 46.41275 | 44.35428 | 44951 ft | 487 kts | 183° |
| 2026-05-05 16:19 | 46.31808 | 44.31513 | 44958 ft | 487 kts | 208° |
| 2026-05-05 16:20 | 46.20219 | 44.22346 | 44978 ft | 487 kts | 207° |
| 2026-05-05 16:22 | 46.05620 | 44.10992 | 44988 ft | 489 kts | 208° |
| 2026-05-05 16:23 | 45.93937 | 44.01962 | 44995 ft | 489 kts | 207° |
| 2026-05-05 16:23 | 45.85069 | 43.95506 | 44992 ft | 488 kts | 205° |
| 2026-05-05 16:24 | 45.79102 | 43.91304 | 45000 ft | 488 kts | 206° |
| 2026-05-05 16:25 | 45.70175 | 43.85072 | 45008 ft | 488 kts | 206° |
| 2026-05-05 16:25 | 45.61241 | 43.78837 | 45011 ft | 487 kts | 205° |
| 2026-05-05 16:26 | 45.49282 | 43.70537 | 45018 ft | 487 kts | 205° |
| 2026-05-05 16:27 | 45.43340 | 43.66335 | 45019 ft | 487 kts | 207° |
| 2026-05-05 16:27 | 45.37534 | 43.62121 | 45024 ft | 486 kts | 206° |
| 2026-05-05 16:28 | 45.31631 | 43.57961 | 45027 ft | 486 kts | 206° |
| 2026-05-05 16:28 | 45.25668 | 43.53674 | 45029 ft | 486 kts | 206° |
| 2026-05-05 16:29 | 45.20773 | 43.50233 | 45032 ft | 486 kts | 206° |
| 2026-05-05 16:29 | 45.14824 | 43.46008 | 45037 ft | 486 kts | 206° |
| 2026-05-05 16:30 | 45.08031 | 43.41190 | 45028 ft | 486 kts | 208° |
| 2026-05-05 16:30 | 45.03215 | 43.37191 | 45032 ft | 486 kts | 210° |
| 2026-05-05 16:31 | 44.97547 | 43.32509 | 45038 ft | 486 kts | 209° |
| 2026-05-05 16:31 | 44.91855 | 43.27861 | 45041 ft | 486 kts | 210° |
| 2026-05-05 16:32 | 44.86121 | 43.23134 | 45044 ft | 486 kts | 209° |
| 2026-05-05 16:32 | 44.80362 | 43.18453 | 45037 ft | 487 kts | 210° |
| 2026-05-05 16:33 | 44.74615 | 43.13745 | 45039 ft | 488 kts | 209° |
| 2026-05-05 16:33 | 44.68901 | 43.09112 | 45037 ft | 489 kts | 210° |
| 2026-05-05 16:34 | 44.63242 | 43.04101 | 45015 ft | 490 kts | 218° |
| 2026-05-05 16:34 | 44.58760 | 42.97255 | 45034 ft | 493 kts | 235° |
| 2026-05-05 16:35 | 44.55810 | 42.88792 | 45047 ft | 496 kts | 247° |
| 2026-05-05 16:35 | 44.53454 | 42.80070 | 45044 ft | 496 kts | 245° |
| 2026-05-05 16:36 | 44.50629 | 42.71561 | 45028 ft | 496 kts | 245° |
| 2026-05-05 16:36 | 44.48044 | 42.62687 | 45037 ft | 497 kts | 246° |
| 2026-05-05 16:37 | 44.45319 | 42.54155 | 45032 ft | 497 kts | 244° |
| 2026-05-05 16:37 | 44.42703 | 42.45564 | 45034 ft | 497 kts | 245° |
| 2026-05-05 16:38 | 44.39965 | 42.36814 | 45033 ft | 496 kts | 244° |
| 2026-05-05 16:38 | 44.37265 | 42.28155 | 45022 ft | 496 kts | 245° |
| 2026-05-05 16:39 | 44.34612 | 42.19649 | 45022 ft | 495 kts | 244° |
| 2026-05-05 16:39 | 44.31908 | 42.11082 | 45027 ft | 495 kts | 244° |
| 2026-05-05 16:40 | 44.29207 | 42.02465 | 45021 ft | 494 kts | 244° |
| 2026-05-05 16:40 | 44.26471 | 41.93848 | 45018 ft | 493 kts | 244° |
| 2026-05-05 16:41 | 44.23766 | 41.85286 | 45011 ft | 493 kts | 244° |
| 2026-05-05 16:41 | 44.21060 | 41.76805 | 45010 ft | 492 kts | 244° |
| 2026-05-05 16:42 | 44.18372 | 41.68367 | 45008 ft | 492 kts | 244° |
| 2026-05-05 16:42 | 44.15607 | 41.59745 | 45009 ft | 492 kts | 244° |
| 2026-05-05 16:43 | 44.12915 | 41.51358 | 45003 ft | 492 kts | 243° |
| 2026-05-05 16:43 | 44.10188 | 41.42529 | 45004 ft | 492 kts | 245° |
| 2026-05-05 16:44 | 44.07501 | 41.33793 | 45011 ft | 495 kts | 244° |
| 2026-05-05 16:44 | 44.04815 | 41.24946 | 45007 ft | 497 kts | 245° |
| 2026-05-05 16:45 | 44.02091 | 41.16088 | 45012 ft | 498 kts | 244° |
| 2026-05-05 16:45 | 43.99381 | 41.07263 | 45011 ft | 500 kts | 244° |
| 2026-05-05 16:46 | 43.96625 | 40.98336 | 45008 ft | 501 kts | 244° |
| 2026-05-05 16:46 | 43.93885 | 40.89485 | 45014 ft | 502 kts | 244° |
| 2026-05-05 16:47 | 43.91121 | 40.80590 | 45010 ft | 502 kts | 244° |
| 2026-05-05 16:47 | 43.88355 | 40.71718 | 45009 ft | 503 kts | 244° |
| 2026-05-05 16:48 | 43.85529 | 40.62799 | 44992 ft | 504 kts | 243° |
| 2026-05-05 16:48 | 43.82696 | 40.53946 | 45003 ft | 504 kts | 244° |
| 2026-05-05 16:49 | 43.79864 | 40.45066 | 44998 ft | 503 kts | 244° |
| 2026-05-05 16:49 | 43.77066 | 40.36371 | 45017 ft | 503 kts | 244° |
| 2026-05-05 16:50 | 43.74282 | 40.27712 | 44998 ft | 504 kts | 243° |
| 2026-05-05 16:50 | 43.71529 | 40.19205 | 44995 ft | 504 kts | 243° |
| 2026-05-05 16:51 | 43.68729 | 40.10558 | 45002 ft | 504 kts | 243° |
| 2026-05-05 16:51 | 43.65888 | 40.01822 | 44995 ft | 504 kts | 243° |
| 2026-05-05 16:52 | 43.63093 | 39.93246 | 44998 ft | 504 kts | 243° |
| 2026-05-05 16:52 | 43.60262 | 39.84594 | 45002 ft | 504 kts | 243° |
| 2026-05-05 16:53 | 43.57479 | 39.76112 | 44997 ft | 504 kts | 243° |
| 2026-05-05 16:53 | 43.54646 | 39.67512 | 44994 ft | 504 kts | 243° |
| 2026-05-05 16:54 | 43.51781 | 39.58919 | 45009 ft | 504 kts | 243° |
| 2026-05-05 16:54 | 43.48807 | 39.49982 | 45007 ft | 505 kts | 243° |
| 2026-05-05 16:55 | 43.45850 | 39.41150 | 45007 ft | 507 kts | 243° |
| 2026-05-05 16:55 | 43.42893 | 39.32334 | 45014 ft | 510 kts | 243° |
| 2026-05-05 16:56 | 43.39910 | 39.23474 | 45013 ft | 514 kts | 243° |
| 2026-05-05 16:56 | 43.36883 | 39.14503 | 45016 ft | 517 kts | 243° |
| 2026-05-05 16:57 | 43.33985 | 39.05435 | 45010 ft | 521 kts | 246° |
| 2026-05-05 16:57 | 43.31416 | 38.96084 | 45015 ft | 523 kts | 247° |
| 2026-05-05 16:58 | 43.28776 | 38.86796 | 45017 ft | 524 kts | 246° |
| 2026-05-05 16:58 | 43.26161 | 38.77470 | 45019 ft | 525 kts | 247° |
| 2026-05-05 16:59 | 43.23462 | 38.68119 | 45021 ft | 525 kts | 246° |
| 2026-05-05 16:59 | 43.20786 | 38.58850 | 45023 ft | 525 kts | 246° |
| 2026-05-05 17:00 | 43.18090 | 38.49535 | 45022 ft | 525 kts | 246° |
| 2026-05-05 17:00 | 43.15396 | 38.40287 | 45021 ft | 525 kts | 246° |
| 2026-05-05 17:01 | 43.12689 | 38.30998 | 45024 ft | 525 kts | 246° |
| 2026-05-05 17:01 | 43.09962 | 38.21702 | 45026 ft | 526 kts | 246° |
| 2026-05-05 17:02 | 43.07234 | 38.12384 | 45024 ft | 526 kts | 246° |
| 2026-05-05 17:02 | 43.04566 | 38.03135 | 45027 ft | 526 kts | 246° |
| 2026-05-05 17:03 | 43.01830 | 37.93813 | 45025 ft | 525 kts | 245° |
| 2026-05-05 17:03 | 42.99105 | 37.84603 | 45025 ft | 525 kts | 246° |
| 2026-05-05 17:04 | 42.96352 | 37.75325 | 45027 ft | 525 kts | 245° |
| 2026-05-05 17:04 | 42.93595 | 37.66144 | 45028 ft | 523 kts | 245° |
| 2026-05-05 17:05 | 42.90827 | 37.56906 | 45033 ft | 525 kts | 245° |
| 2026-05-05 17:05 | 42.88064 | 37.47753 | 45028 ft | 525 kts | 245° |
| 2026-05-05 17:06 | 42.85277 | 37.38529 | 45033 ft | 525 kts | 245° |
| 2026-05-05 17:06 | 42.82475 | 37.29300 | 45029 ft | 526 kts | 245° |
| 2026-05-05 17:07 | 42.79686 | 37.20143 | 45022 ft | 526 kts | 245° |
| 2026-05-05 17:07 | 42.76867 | 37.10922 | 45021 ft | 526 kts | 245° |
| 2026-05-05 17:08 | 42.74061 | 37.01774 | 45031 ft | 526 kts | 245° |
| 2026-05-05 17:08 | 42.71240 | 36.92612 | 45033 ft | 526 kts | 245° |
| 2026-05-05 17:09 | 42.68066 | 36.83634 | 45029 ft | 526 kts | 243° |
| 2026-05-05 17:09 | 42.64806 | 36.74706 | 45033 ft | 528 kts | 243° |
| 2026-05-05 17:10 | 42.61576 | 36.65769 | 45036 ft | 529 kts | 243° |
| 2026-05-05 17:10 | 42.58293 | 36.56819 | 45034 ft | 529 kts | 243° |
| 2026-05-05 17:11 | 42.55039 | 36.47895 | 45036 ft | 529 kts | 243° |
| 2026-05-05 17:11 | 42.51742 | 36.38945 | 45039 ft | 530 kts | 243° |
| 2026-05-05 17:12 | 42.48463 | 36.30026 | 45039 ft | 530 kts | 243° |
| 2026-05-05 17:12 | 42.45179 | 36.21153 | 45046 ft | 530 kts | 243° |
| 2026-05-05 17:13 | 42.41936 | 36.12398 | 45030 ft | 530 kts | 243° |
| 2026-05-05 17:13 | 42.38700 | 36.03699 | 45030 ft | 529 kts | 243° |
| 2026-05-05 17:14 | 42.35466 | 35.95030 | 45030 ft | 529 kts | 243° |
| 2026-05-05 17:14 | 42.32296 | 35.86557 | 45030 ft | 529 kts | 243° |
| 2026-05-05 17:15 | 42.28976 | 35.77710 | 45035 ft | 529 kts | 243° |
| 2026-05-05 17:15 | 42.25726 | 35.69077 | 45044 ft | 529 kts | 243° |
| 2026-05-05 17:16 | 42.23076 | 35.62057 | 45039 ft | 529 kts | 243° |
| 2026-05-05 17:16 | 42.19737 | 35.53234 | 45042 ft | 529 kts | 242° |
| 2026-05-05 17:17 | 42.16478 | 35.44652 | 45060 ft | 530 kts | 242° |
| 2026-05-05 17:17 | 42.13184 | 35.35999 | 45055 ft | 530 kts | 242° |
| 2026-05-05 17:18 | 42.09801 | 35.27145 | 45079 ft | 530 kts | 242° |
| 2026-05-05 17:18 | 42.06441 | 35.18375 | 45078 ft | 530 kts | 242° |
| 2026-05-05 17:19 | 42.02945 | 35.09618 | 45054 ft | 529 kts | 237° |
| 2026-05-05 17:19 | 41.98158 | 35.02178 | 45071 ft | 529 kts | 222° |
| 2026-05-05 17:20 | 41.92521 | 34.95879 | 45088 ft | 529 kts | 219° |
| 2026-05-05 17:20 | 41.87062 | 34.89231 | 45080 ft | 529 kts | 224° |
| 2026-05-05 17:21 | 41.81573 | 34.82633 | 45057 ft | 528 kts | 220° |
| 2026-05-05 17:22 | 41.73393 | 34.72811 | 45046 ft | 528 kts | 222° |
| 2026-05-05 17:22 | 41.67866 | 34.66307 | 45040 ft | 528 kts | 221° |
| 2026-05-05 17:23 | 41.62412 | 34.59768 | 45024 ft | 528 kts | 222° |
| 2026-05-05 17:23 | 41.56875 | 34.53219 | 45027 ft | 529 kts | 221° |
| 2026-05-05 17:24 | 41.51100 | 34.47242 | 45020 ft | 529 kts | 212° |
| 2026-05-05 17:24 | 41.44666 | 34.42570 | 45034 ft | 527 kts | 207° |
| 2026-05-05 17:25 | 41.38364 | 34.37581 | 45011 ft | 526 kts | 212° |
| 2026-05-05 17:25 | 41.32025 | 34.32647 | 45013 ft | 526 kts | 209° |
| 2026-05-05 17:26 | 41.25736 | 34.27800 | 45014 ft | 525 kts | 211° |
| 2026-05-05 17:26 | 41.19413 | 34.22853 | 45014 ft | 526 kts | 210° |
| 2026-05-05 17:27 | 41.13110 | 34.18028 | 45019 ft | 526 kts | 211° |
| 2026-05-05 17:27 | 41.06754 | 34.13086 | 45019 ft | 527 kts | 210° |
| 2026-05-05 17:28 | 41.00412 | 34.08237 | 45013 ft | 528 kts | 210° |
| 2026-05-05 17:28 | 40.94055 | 34.03333 | 45013 ft | 528 kts | 210° |
| 2026-05-05 17:29 | 40.87716 | 33.98493 | 45014 ft | 528 kts | 210° |
| 2026-05-05 17:29 | 40.81331 | 33.93602 | 45005 ft | 529 kts | 210° |
| 2026-05-05 17:30 | 40.74985 | 33.88769 | 45001 ft | 528 kts | 210° |
| 2026-05-05 17:30 | 40.68601 | 33.83907 | 44994 ft | 528 kts | 210° |
| 2026-05-05 17:31 | 40.62262 | 33.79096 | 44997 ft | 528 kts | 210° |
| 2026-05-05 17:31 | 40.55866 | 33.74250 | 44987 ft | 528 kts | 210° |
| 2026-05-05 17:32 | 40.49519 | 33.69453 | 44989 ft | 528 kts | 210° |
| 2026-05-05 17:32 | 40.43119 | 33.64626 | 44985 ft | 528 kts | 210° |
| 2026-05-05 17:33 | 40.36786 | 33.59860 | 44982 ft | 529 kts | 210° |
| 2026-05-05 17:33 | 40.30385 | 33.55054 | 44980 ft | 529 kts | 210° |
| 2026-05-05 17:34 | 40.24035 | 33.50295 | 44988 ft | 529 kts | 210° |
| 2026-05-05 17:34 | 40.17639 | 33.45514 | 44986 ft | 529 kts | 210° |
| 2026-05-05 17:35 | 40.11256 | 33.40752 | 44985 ft | 529 kts | 210° |
| 2026-05-05 17:35 | 40.04883 | 33.36008 | 44987 ft | 529 kts | 210° |
| 2026-05-05 17:36 | 39.98473 | 33.31248 | 44995 ft | 529 kts | 210° |
| 2026-05-05 17:36 | 39.92100 | 33.26525 | 44997 ft | 530 kts | 210° |
| 2026-05-05 17:37 | 39.85675 | 33.21774 | 45008 ft | 529 kts | 211° |
| 2026-05-05 17:37 | 39.79263 | 33.17042 | 45011 ft | 529 kts | 211° |
| 2026-05-05 17:38 | 39.72887 | 33.12347 | 45013 ft | 529 kts | 211° |
| 2026-05-05 17:38 | 39.66475 | 33.07636 | 45009 ft | 528 kts | 211° |
| 2026-05-05 17:39 | 39.60074 | 33.02943 | 45009 ft | 528 kts | 211° |
| 2026-05-05 17:39 | 39.53693 | 32.98275 | 45005 ft | 528 kts | 211° |
| 2026-05-05 17:40 | 39.47321 | 32.93623 | 45007 ft | 528 kts | 211° |
| 2026-05-05 17:40 | 39.40893 | 32.88940 | 45016 ft | 528 kts | 211° |
| 2026-05-05 17:41 | 39.34513 | 32.84303 | 45018 ft | 528 kts | 211° |
| 2026-05-05 17:41 | 39.28083 | 32.79639 | 45023 ft | 528 kts | 211° |
| 2026-05-05 17:42 | 39.21683 | 32.75006 | 45024 ft | 528 kts | 211° |
| 2026-05-05 17:42 | 39.15298 | 32.70394 | 45020 ft | 528 kts | 211° |
| 2026-05-05 17:43 | 39.08857 | 32.65751 | 45023 ft | 528 kts | 211° |
| 2026-05-05 17:43 | 39.02465 | 32.61153 | 45022 ft | 528 kts | 211° |
| 2026-05-05 17:44 | 38.96041 | 32.56542 | 45025 ft | 528 kts | 211° |
| 2026-05-05 17:44 | 38.89649 | 32.51964 | 45025 ft | 528 kts | 211° |
| 2026-05-05 17:45 | 38.83223 | 32.47371 | 45031 ft | 527 kts | 211° |
| 2026-05-05 17:45 | 38.77052 | 32.42968 | 45027 ft | 527 kts | 211° |
| 2026-05-05 17:46 | 38.70832 | 32.38540 | 45034 ft | 526 kts | 211° |
| 2026-05-05 17:46 | 38.64659 | 32.34155 | 45038 ft | 526 kts | 211° |
| 2026-05-05 17:47 | 38.58373 | 32.29697 | 45034 ft | 526 kts | 211° |
| 2026-05-05 17:47 | 38.52107 | 32.25264 | 45037 ft | 525 kts | 211° |
| 2026-05-05 17:48 | 38.45904 | 32.20883 | 45034 ft | 525 kts | 211° |
| 2026-05-05 17:48 | 38.39732 | 32.16532 | 45037 ft | 525 kts | 211° |
| 2026-05-05 17:49 | 38.33402 | 32.12080 | 45041 ft | 525 kts | 211° |
| 2026-05-05 17:49 | 38.27246 | 32.07758 | 45040 ft | 525 kts | 211° |
| 2026-05-05 17:50 | 38.20709 | 32.03178 | 45063 ft | 525 kts | 211° |
| 2026-05-05 17:50 | 38.14288 | 31.98689 | 45057 ft | 525 kts | 211° |
| 2026-05-05 17:51 | 38.07913 | 31.94240 | 45051 ft | 525 kts | 211° |
| 2026-05-05 17:51 | 38.01517 | 31.89786 | 45045 ft | 525 kts | 211° |
| 2026-05-05 17:52 | 37.95104 | 31.85329 | 45039 ft | 525 kts | 211° |
| 2026-05-05 17:52 | 37.88724 | 31.80904 | 45033 ft | 524 kts | 211° |
| 2026-05-05 17:53 | 37.82312 | 31.76466 | 45035 ft | 524 kts | 211° |
| 2026-05-05 17:53 | 37.75945 | 31.72068 | 45027 ft | 524 kts | 211° |
| 2026-05-05 17:54 | 37.69531 | 31.67646 | 45026 ft | 523 kts | 211° |
| 2026-05-05 17:54 | 37.63151 | 31.63255 | 45017 ft | 523 kts | 211° |
| 2026-05-05 17:55 | 37.56733 | 31.58848 | 45012 ft | 523 kts | 211° |
| 2026-05-05 17:55 | 37.50366 | 31.54484 | 45020 ft | 523 kts | 211° |
| 2026-05-05 17:56 | 37.43950 | 31.50096 | 45008 ft | 524 kts | 211° |
| 2026-05-05 17:56 | 37.37564 | 31.45735 | 45007 ft | 524 kts | 211° |
| 2026-05-05 17:57 | 37.31133 | 31.41354 | 45007 ft | 524 kts | 211° |
| 2026-05-05 17:57 | 37.24753 | 31.37015 | 45007 ft | 524 kts | 211° |
| 2026-05-05 17:58 | 37.18367 | 31.32682 | 45001 ft | 524 kts | 211° |
| 2026-05-05 17:58 | 37.11943 | 31.28329 | 44998 ft | 524 kts | 211° |
| 2026-05-05 17:59 | 37.05539 | 31.24000 | 44991 ft | 524 kts | 211° |
| 2026-05-05 17:59 | 36.99151 | 31.19690 | 44986 ft | 523 kts | 211° |
| 2026-05-05 18:00 | 36.92733 | 31.15367 | 44980 ft | 523 kts | 211° |
| 2026-05-05 18:00 | 36.86304 | 31.11046 | 44984 ft | 523 kts | 211° |
| 2026-05-05 18:01 | 36.79905 | 31.06753 | 44978 ft | 523 kts | 211° |
| 2026-05-05 18:01 | 36.73485 | 31.02454 | 44978 ft | 523 kts | 211° |
| 2026-05-05 18:02 | 36.67094 | 30.98183 | 44971 ft | 523 kts | 211° |
| 2026-05-05 18:02 | 36.60679 | 30.93903 | 44975 ft | 523 kts | 211° |
| 2026-05-05 18:03 | 36.54284 | 30.89646 | 44977 ft | 523 kts | 211° |
| 2026-05-05 18:03 | 36.47841 | 30.85364 | 44975 ft | 522 kts | 211° |
| 2026-05-05 18:04 | 36.41545 | 30.80990 | 44957 ft | 518 kts | 218° |
| 2026-05-05 18:04 | 36.36016 | 30.75303 | 44988 ft | 514 kts | 225° |
| 2026-05-05 18:05 | 36.30593 | 30.69543 | 44998 ft | 514 kts | 223° |
| 2026-05-05 18:05 | 36.25143 | 30.63787 | 44997 ft | 513 kts | 224° |
| 2026-05-05 18:06 | 36.20657 | 30.59019 | 44996 ft | 513 kts | 224° |
| 2026-05-05 18:06 | 36.14317 | 30.52351 | 44992 ft | 513 kts | 224° |
| 2026-05-05 18:07 | 36.09790 | 30.47568 | 44997 ft | 513 kts | 224° |
| 2026-05-05 18:07 | 36.04333 | 30.41842 | 44994 ft | 513 kts | 224° |
| 2026-05-05 18:08 | 35.98927 | 30.36160 | 45007 ft | 513 kts | 224° |
| 2026-05-05 18:08 | 35.93479 | 30.30457 | 44997 ft | 513 kts | 224° |
| 2026-05-05 18:09 | 35.88051 | 30.24778 | 45002 ft | 512 kts | 224° |
| 2026-05-05 18:09 | 35.82606 | 30.19096 | 45005 ft | 512 kts | 224° |
| 2026-05-05 18:10 | 35.77167 | 30.13430 | 45008 ft | 512 kts | 224° |
| 2026-05-05 18:10 | 35.71740 | 30.07787 | 45003 ft | 512 kts | 224° |
| 2026-05-05 18:11 | 35.66524 | 30.01834 | 45001 ft | 506 kts | 233° |
| 2026-05-05 18:11 | 35.62901 | 29.94579 | 45005 ft | 498 kts | 250° |
| 2026-05-05 18:12 | 35.60830 | 29.86508 | 45028 ft | 495 kts | 257° |
| 2026-05-05 18:12 | 35.58872 | 29.78365 | 45014 ft | 497 kts | 252° |
| 2026-05-05 18:13 | 35.56151 | 29.70590 | 45010 ft | 498 kts | 249° |
| 2026-05-05 18:13 | 35.53683 | 29.62625 | 45014 ft | 497 kts | 253° |
| 2026-05-05 18:14 | 35.51151 | 29.54735 | 45011 ft | 498 kts | 250° |
| 2026-05-05 18:14 | 35.48604 | 29.46816 | 45016 ft | 497 kts | 252° |
| 2026-05-05 18:15 | 35.46102 | 29.38953 | 45015 ft | 498 kts | 251° |
| 2026-05-05 18:15 | 35.43534 | 29.31041 | 45015 ft | 498 kts | 251° |
| 2026-05-05 18:16 | 35.41008 | 29.23154 | 45014 ft | 498 kts | 251° |
| 2026-05-05 18:16 | 35.38454 | 29.15301 | 45013 ft | 498 kts | 251° |
| 2026-05-05 18:17 | 35.35898 | 29.07390 | 45010 ft | 498 kts | 251° |
| 2026-05-05 18:17 | 35.33321 | 28.99486 | 45008 ft | 498 kts | 251° |
| 2026-05-05 18:18 | 35.30767 | 28.91639 | 45013 ft | 498 kts | 251° |
| 2026-05-05 18:18 | 35.28201 | 28.83795 | 45018 ft | 498 kts | 251° |
| 2026-05-05 18:19 | 35.25615 | 28.75901 | 45013 ft | 498 kts | 251° |
| 2026-05-05 18:19 | 35.23029 | 28.68034 | 45023 ft | 498 kts | 251° |
| 2026-05-05 18:20 | 35.20450 | 28.60204 | 45020 ft | 498 kts | 251° |
| 2026-05-05 18:20 | 35.17853 | 28.52343 | 45030 ft | 498 kts | 251° |
| 2026-05-05 18:21 | 35.15266 | 28.44530 | 45038 ft | 498 kts | 251° |
| 2026-05-05 18:21 | 35.12658 | 28.36678 | 45037 ft | 498 kts | 251° |
| 2026-05-05 18:22 | 35.10061 | 28.28874 | 45030 ft | 497 kts | 251° |
| 2026-05-05 18:22 | 35.07445 | 28.21036 | 45035 ft | 497 kts | 250° |
| 2026-05-05 18:23 | 35.04831 | 28.13224 | 45034 ft | 497 kts | 250° |
| 2026-05-05 18:23 | 35.02219 | 28.05438 | 45041 ft | 497 kts | 250° |
| 2026-05-05 18:24 | 34.99600 | 27.97650 | 45048 ft | 497 kts | 250° |
| 2026-05-05 18:24 | 34.96963 | 27.89828 | 45041 ft | 497 kts | 250° |
| 2026-05-05 18:25 | 34.94338 | 27.82063 | 45048 ft | 497 kts | 250° |
| 2026-05-05 18:25 | 34.91699 | 27.74276 | 45048 ft | 497 kts | 250° |
| 2026-05-05 18:26 | 34.89051 | 27.66480 | 45050 ft | 497 kts | 250° |
| 2026-05-05 18:26 | 34.86411 | 27.58729 | 45050 ft | 497 kts | 250° |
| 2026-05-05 18:27 | 34.83742 | 27.50913 | 45056 ft | 498 kts | 250° |
| 2026-05-05 18:27 | 34.81076 | 27.43123 | 45059 ft | 498 kts | 250° |
| 2026-05-05 18:28 | 34.77076 | 27.31475 | 45057 ft | 498 kts | 250° |
| 2026-05-05 18:28 | 34.74405 | 27.23720 | 45064 ft | 498 kts | 250° |
| 2026-05-05 18:29 | 34.71721 | 27.15947 | 45064 ft | 498 kts | 250° |
| 2026-05-05 18:29 | 34.69024 | 27.08156 | 45068 ft | 498 kts | 250° |
| 2026-05-05 18:30 | 34.66343 | 27.00430 | 45067 ft | 498 kts | 250° |
| 2026-05-05 18:30 | 34.63641 | 26.92662 | 45074 ft | 498 kts | 250° |
| 2026-05-05 18:31 | 34.60951 | 26.84950 | 45071 ft | 498 kts | 250° |
| 2026-05-05 18:31 | 34.58254 | 26.77235 | 45074 ft | 497 kts | 250° |
| 2026-05-05 18:32 | 34.55539 | 26.69488 | 45077 ft | 497 kts | 250° |
| 2026-05-05 18:32 | 34.52846 | 26.61821 | 45079 ft | 496 kts | 250° |
| 2026-05-05 18:33 | 34.50123 | 26.54089 | 45075 ft | 496 kts | 250° |
| 2026-05-05 18:33 | 34.47422 | 26.46438 | 45076 ft | 495 kts | 250° |
| 2026-05-05 18:34 | 34.44703 | 26.38754 | 45078 ft | 495 kts | 250° |
| 2026-05-05 18:34 | 34.41987 | 26.31099 | 45079 ft | 494 kts | 250° |
| 2026-05-05 18:35 | 34.39288 | 26.23507 | 45078 ft | 493 kts | 250° |
| 2026-05-05 18:35 | 34.36583 | 26.15918 | 45081 ft | 492 kts | 250° |
| 2026-05-05 18:36 | 34.33860 | 26.08295 | 45082 ft | 492 kts | 250° |
| 2026-05-05 18:36 | 34.31152 | 26.00734 | 45079 ft | 491 kts | 250° |
| 2026-05-05 18:37 | 34.28425 | 25.93139 | 45084 ft | 490 kts | 250° |
| 2026-05-05 18:37 | 34.25711 | 25.85596 | 45085 ft | 489 kts | 250° |
| 2026-05-05 18:38 | 34.22996 | 25.78067 | 45087 ft | 489 kts | 250° |
| 2026-05-05 18:38 | 34.20266 | 25.70515 | 45087 ft | 488 kts | 250° |
| 2026-05-05 18:39 | 34.17555 | 25.63033 | 45093 ft | 488 kts | 250° |
| 2026-05-05 18:39 | 34.14830 | 25.55530 | 45093 ft | 488 kts | 250° |
| 2026-05-05 18:40 | 34.12089 | 25.48002 | 45095 ft | 488 kts | 250° |
| 2026-05-05 18:40 | 34.09363 | 25.40530 | 45100 ft | 488 kts | 250° |
| 2026-05-05 18:41 | 34.06615 | 25.33016 | 45095 ft | 488 kts | 250° |
| 2026-05-05 18:41 | 34.03881 | 25.25558 | 45109 ft | 488 kts | 249° |
| 2026-05-05 18:42 | 34.01125 | 25.18056 | 45102 ft | 488 kts | 249° |
| 2026-05-05 18:42 | 33.98370 | 25.10604 | 45107 ft | 488 kts | 249° |
| 2026-05-05 18:43 | 33.95584 | 25.03181 | 45098 ft | 488 kts | 249° |
| 2026-05-05 18:43 | 33.92801 | 24.95720 | 45104 ft | 488 kts | 249° |
| 2026-05-05 18:44 | 33.90014 | 24.88303 | 45101 ft | 488 kts | 249° |
| 2026-05-05 18:44 | 33.87369 | 24.81259 | 45108 ft | 488 kts | 249° |
| 2026-05-05 18:45 | 33.84552 | 24.73787 | 45114 ft | 488 kts | 249° |
| 2026-05-05 18:45 | 33.81751 | 24.66367 | 45117 ft | 488 kts | 249° |
| 2026-05-05 18:46 | 33.78950 | 24.58965 | 45113 ft | 488 kts | 249° |
| 2026-05-05 18:46 | 33.76126 | 24.51518 | 45109 ft | 489 kts | 249° |
| 2026-05-05 18:47 | 33.73315 | 24.44124 | 45117 ft | 489 kts | 249° |
| 2026-05-05 18:47 | 33.70481 | 24.36684 | 45116 ft | 489 kts | 249° |
| 2026-05-05 18:48 | 33.67637 | 24.29236 | 45116 ft | 489 kts | 249° |
| 2026-05-05 18:48 | 33.64863 | 24.21985 | 45120 ft | 489 kts | 249° |
| 2026-05-05 18:49 | 33.62074 | 24.14712 | 45123 ft | 489 kts | 249° |
| 2026-05-05 18:49 | 33.59313 | 24.07530 | 45124 ft | 489 kts | 249° |
| 2026-05-05 18:50 | 33.56521 | 24.00281 | 45122 ft | 489 kts | 249° |
| 2026-05-05 18:50 | 33.53731 | 23.93051 | 45126 ft | 489 kts | 249° |
| 2026-05-05 18:51 | 33.50952 | 23.85866 | 45121 ft | 489 kts | 249° |
| 2026-05-05 18:51 | 33.48129 | 23.78585 | 45129 ft | 489 kts | 249° |
| 2026-05-05 18:52 | 33.45339 | 23.71403 | 45127 ft | 489 kts | 249° |
| 2026-05-05 18:52 | 33.42544 | 23.64223 | 45129 ft | 489 kts | 249° |
| 2026-05-05 18:53 | 33.40115 | 23.57995 | 45125 ft | 490 kts | 249° |
| 2026-05-05 18:53 | 33.37288 | 23.50779 | 45120 ft | 464 kts | 249° |
| 2026-05-05 18:54 | 33.35935 | 23.47325 | 45118 ft | 452 kts | 249° |
| 2026-05-05 18:54 | 33.34607 | 23.43918 | 45125 ft | 451 kts | 249° |
| 2026-05-05 18:54 | 33.31931 | 23.37095 | 45139 ft | 460 kts | 249° |
| 2026-05-05 18:55 | 33.29199 | 23.30156 | 45148 ft | 460 kts | 249° |
| 2026-05-05 18:55 | 33.26474 | 23.23236 | 45148 ft | 459 kts | 249° |
| 2026-05-05 18:56 | 33.23762 | 23.16368 | 45148 ft | 459 kts | 249° |
| 2026-05-05 18:56 | 33.21026 | 23.09452 | 45140 ft | 459 kts | 249° |
| 2026-05-05 18:57 | 33.18286 | 23.02540 | 45135 ft | 459 kts | 249° |
| 2026-05-05 18:57 | 33.15564 | 22.95688 | 45139 ft | 459 kts | 249° |
| 2026-05-05 18:58 | 33.12833 | 22.88827 | 45140 ft | 459 kts | 249° |
| 2026-05-05 18:58 | 33.10082 | 22.81930 | 45139 ft | 459 kts | 249° |
| 2026-05-05 18:59 | 33.07330 | 22.75044 | 45137 ft | 459 kts | 249° |
| 2026-05-05 18:59 | 33.04591 | 22.68203 | 45133 ft | 459 kts | 249° |
| 2026-05-05 19:00 | 33.01845 | 22.61358 | 45137 ft | 459 kts | 249° |
| 2026-05-05 19:00 | 32.99086 | 22.54499 | 44869 ft | 452 kts | 249° |
| 2026-05-05 19:01 | 32.97734 | 22.51147 | 44220 ft | 444 kts | 249° |
| 2026-05-05 19:01 | 32.96404 | 22.47849 | 43622 ft | 434 kts | 249° |
| 2026-05-05 19:01 | 32.95126 | 22.44680 | 43063 ft | 424 kts | 249° |
| 2026-05-05 19:01 | 32.93855 | 22.41529 | 42513 ft | 417 kts | 250° |
| 2026-05-05 19:02 | 32.92605 | 22.38433 | 41969 ft | 412 kts | 250° |
| 2026-05-05 19:02 | 32.91360 | 22.35351 | 41428 ft | 411 kts | 250° |
| 2026-05-05 19:02 | 32.90131 | 22.32313 | 40895 ft | 414 kts | 250° |
| 2026-05-05 19:02 | 32.88870 | 22.29197 | 40352 ft | 419 kts | 250° |
| 2026-05-05 19:03 | 32.87594 | 22.26052 | 39806 ft | 422 kts | 250° |
| 2026-05-05 19:03 | 32.86306 | 22.22882 | 39242 ft | 424 kts | 250° |
| 2026-05-05 19:03 | 32.85032 | 22.19749 | 38653 ft | 425 kts | 250° |
| 2026-05-05 19:03 | 32.83741 | 22.16575 | 38068 ft | 423 kts | 250° |
| 2026-05-05 19:04 | 32.82475 | 22.13462 | 37517 ft | 424 kts | 250° |
| 2026-05-05 19:04 | 32.81185 | 22.10292 | 36961 ft | 426 kts | 250° |
| 2026-05-05 19:04 | 32.79883 | 22.07101 | 36391 ft | 428 kts | 249° |
| 2026-05-05 19:04 | 32.78582 | 22.03915 | 35831 ft | 429 kts | 249° |
| 2026-05-05 19:05 | 32.77341 | 22.00734 | 35258 ft | 428 kts | 252° |
| 2026-05-05 19:05 | 32.76196 | 21.97462 | 34695 ft | 429 kts | 252° |
| 2026-05-05 19:05 | 32.75044 | 21.94173 | 34123 ft | 431 kts | 251° |
| 2026-05-05 19:05 | 32.73882 | 21.90905 | 33505 ft | 432 kts | 251° |
| 2026-05-05 19:06 | 32.72702 | 21.87599 | 32933 ft | 435 kts | 251° |
| 2026-05-05 19:06 | 32.71517 | 21.84254 | 32355 ft | 438 kts | 251° |
| 2026-05-05 19:06 | 32.70346 | 21.80939 | 31774 ft | 441 kts | 251° |
| 2026-05-05 19:06 | 32.69147 | 21.77567 | 31191 ft | 444 kts | 250° |
| 2026-05-05 19:07 | 32.67932 | 21.74163 | 30601 ft | 448 kts | 250° |
| 2026-05-05 19:07 | 32.66714 | 21.70746 | 29971 ft | 446 kts | 250° |
| 2026-05-05 19:07 | 32.65523 | 21.67407 | 29389 ft | 440 kts | 250° |
| 2026-05-05 19:07 | 32.64339 | 21.64087 | 28806 ft | 438 kts | 250° |
| 2026-05-05 19:08 | 32.63152 | 21.60762 | 28231 ft | 435 kts | 250° |
| 2026-05-05 19:08 | 32.61972 | 21.57464 | 27661 ft | 432 kts | 250° |
| 2026-05-05 19:08 | 32.60799 | 21.54189 | 27084 ft | 430 kts | 250° |
| 2026-05-05 19:08 | 32.59644 | 21.50968 | 26526 ft | 427 kts | 250° |
| 2026-05-05 19:09 | 32.58482 | 21.47725 | 25961 ft | 424 kts | 250° |
| 2026-05-05 19:09 | 32.57325 | 21.44504 | 25401 ft | 422 kts | 250° |
| 2026-05-05 19:09 | 32.56175 | 21.41306 | 24845 ft | 419 kts | 250° |
| 2026-05-05 19:09 | 32.55031 | 21.38124 | 24292 ft | 417 kts | 250° |
| 2026-05-05 19:10 | 32.53910 | 21.35010 | 23750 ft | 415 kts | 250° |
| 2026-05-05 19:10 | 32.52779 | 21.31873 | 23163 ft | 411 kts | 250° |
| 2026-05-05 19:10 | 32.51661 | 21.28776 | 22617 ft | 408 kts | 250° |
| 2026-05-05 19:10 | 32.50544 | 21.25682 | 22084 ft | 405 kts | 250° |
| 2026-05-05 19:11 | 32.49449 | 21.22651 | 21550 ft | 402 kts | 250° |
| 2026-05-05 19:11 | 32.48343 | 21.19593 | 21022 ft | 400 kts | 250° |
| 2026-05-05 19:11 | 32.47263 | 21.16612 | 20500 ft | 397 kts | 250° |
| 2026-05-05 19:11 | 32.46178 | 21.13616 | 19983 ft | 395 kts | 250° |
| 2026-05-05 19:12 | 32.45090 | 21.10618 | 19455 ft | 392 kts | 250° |
| 2026-05-05 19:12 | 32.44012 | 21.07648 | 18937 ft | 389 kts | 249° |
| 2026-05-05 19:12 | 32.42959 | 21.04749 | 18423 ft | 387 kts | 249° |
| 2026-05-05 19:12 | 32.41898 | 21.01833 | 17883 ft | 383 kts | 249° |
| 2026-05-05 19:13 | 32.40843 | 20.98935 | 17375 ft | 381 kts | 249° |
| 2026-05-05 19:13 | 32.39792 | 20.96049 | 16871 ft | 378 kts | 249° |
| 2026-05-05 19:13 | 32.38768 | 20.93241 | 16377 ft | 376 kts | 249° |
| 2026-05-05 19:13 | 32.37731 | 20.90400 | 15883 ft | 373 kts | 249° |
| 2026-05-05 19:14 | 32.36703 | 20.87584 | 15385 ft | 371 kts | 249° |
| 2026-05-05 19:14 | 32.35679 | 20.84783 | 14906 ft | 368 kts | 249° |
| 2026-05-05 19:14 | 32.34674 | 20.82036 | 14423 ft | 366 kts | 249° |
| 2026-05-05 19:14 | 32.33663 | 20.79274 | 13939 ft | 364 kts | 249° |
| 2026-05-05 19:15 | 32.32658 | 20.76532 | 13430 ft | 361 kts | 249° |
| 2026-05-05 19:15 | 32.31660 | 20.73810 | 12951 ft | 359 kts | 249° |
| 2026-05-05 19:15 | 32.30666 | 20.71102 | 12477 ft | 358 kts | 249° |
| 2026-05-05 19:15 | 32.29616 | 20.68485 | 12007 ft | 357 kts | 245° |
| 2026-05-05 19:16 | 32.28485 | 20.65873 | 11537 ft | 355 kts | 246° |
| 2026-05-05 19:16 | 32.27416 | 20.63299 | 11073 ft | 338 kts | 246° |
| 2026-05-05 19:16 | 32.26410 | 20.60912 | 10638 ft | 319 kts | 246° |
| 2026-05-05 19:16 | 32.25422 | 20.58620 | 10219 ft | 303 kts | 246° |
| 2026-05-05 19:17 | 32.24490 | 20.56448 | 9807 ft | 291 kts | 246° |
| 2026-05-05 19:17 | 32.23594 | 20.54337 | 9418 ft | 284 kts | 245° |
| 2026-05-05 19:17 | 32.22717 | 20.52276 | 9052 ft | 283 kts | 245° |
| 2026-05-05 19:17 | 32.21837 | 20.50187 | 8680 ft | 283 kts | 247° |
| 2026-05-05 19:18 | 32.21031 | 20.48065 | 8267 ft | 283 kts | 242° |
| 2026-05-05 19:18 | 32.19595 | 20.46463 | 7900 ft | 285 kts | 213° |
| 2026-05-05 19:18 | 32.17796 | 20.45617 | 7677 ft | 284 kts | 192° |
| 2026-05-05 19:18 | 32.15824 | 20.45817 | 7300 ft | 288 kts | 160° |
| 2026-05-05 19:19 | 32.14119 | 20.47025 | 6966 ft | 283 kts | 147° |
| 2026-05-05 19:19 | 32.12302 | 20.47910 | 6592 ft | 282 kts | 166° |
| 2026-05-05 19:19 | 32.10385 | 20.48212 | 6218 ft | 278 kts | 176° |
| 2026-05-05 19:19 | 32.08461 | 20.48147 | 5834 ft | 274 kts | 185° |
| 2026-05-05 19:20 | 32.06616 | 20.47774 | 5457 ft | 270 kts | 192° |
| 2026-05-05 19:20 | 32.04867 | 20.47155 | 5094 ft | 250 kts | 198° |
| 2026-05-05 19:20 | 32.03329 | 20.46396 | 4744 ft | 229 kts | 203° |
| 2026-05-05 19:20 | 32.02049 | 20.45603 | 4461 ft | 221 kts | 208° |
| 2026-05-05 19:21 | 32.00764 | 20.44642 | 4179 ft | 222 kts | 213° |
| 2026-05-05 19:21 | 31.99529 | 20.43540 | 3899 ft | 224 kts | 218° |
| 2026-05-05 19:21 | 31.98355 | 20.42302 | 3602 ft | 228 kts | 223° |
| 2026-05-05 19:21 | 31.97263 | 20.40946 | 3310 ft | 229 kts | 227° |
| 2026-05-05 19:22 | 31.96257 | 20.39476 | 3010 ft | 230 kts | 232° |
| 2026-05-05 19:22 | 31.95531 | 20.37929 | 2628 ft | 212 kts | 256° |
| 2026-05-05 19:22 | 31.95762 | 20.36345 | 2290 ft | 188 kts | 306° |
| 2026-05-05 19:22 | 31.96774 | 20.35620 | 2117 ft | 161 kts | 349° |
| 2026-05-05 19:23 | 31.97833 | 20.35231 | 2120 ft | 166 kts | 340° |
| 2026-05-05 19:23 | 31.98848 | 20.34583 | 2142 ft | 169 kts | 334° |
| 2026-05-05 19:23 | 31.99876 | 20.33878 | 2131 ft | 170 kts | 334° |
| 2026-05-05 19:23 | 32.00834 | 20.33223 | 2097 ft | 156 kts | 334° |
| 2026-05-05 19:24 | 32.01776 | 20.32589 | 1964 ft | 154 kts | 335° |
| 2026-05-05 19:24 | 32.02708 | 20.31954 | 1840 ft | 154 kts | 333° |
| 2026-05-05 19:24 | 32.03565 | 20.31199 | 1764 ft | 158 kts | 324° |
| 2026-05-05 19:24 | 32.04418 | 20.30389 | 1529 ft | 154 kts | 328° |
| 2026-05-05 19:25 | 32.05298 | 20.29711 | 1230 ft | 148 kts | 333° |
| 2026-05-05 19:25 | 32.06186 | 20.29106 | 952 ft | 146 kts | 333° |
| 2026-05-05 19:25 | 32.07055 | 20.28530 | 668 ft | 142 kts | 333° |
| 2026-05-05 19:25 | 32.07887 | 20.27971 | 507 ft | 134 kts | 332° |
| 2026-05-05 19:26 | 32.08676 | 20.27447 | 416 ft | 123 kts | 332° |
| 2026-05-05 19:26 | 32.09285 | 20.27034 | 411 ft | 71 kts | 330° |
| 2026-05-05 19:26 | 32.09588 | 20.26831 | 414 ft | 29 kts | 330° |
| 2026-05-05 19:26 | 32.09770 | 20.26710 | 411 ft | 26 kts | 330° |
| 2026-05-05 19:27 | 32.09894 | 20.26626 | 412 ft | 20 kts | 329° |
| 2026-05-05 19:27 | 32.10021 | 20.26537 | 411 ft | 23 kts | 329° |
| 2026-05-05 19:27 | 32.10166 | 20.26432 | 410 ft | 26 kts | 328° |
| 2026-05-05 19:27 | 32.10327 | 20.26330 | 411 ft | 24 kts | 334° |
| 2026-05-05 19:28 | 32.10431 | 20.26218 | 408 ft | 15 kts | 288° |
| 2026-05-05 19:28 | 32.10410 | 20.26096 | 411 ft | 18 kts | 235° |
| 2026-05-05 19:28 | 32.10306 | 20.26044 | 411 ft | 15 kts | 176° |
| 2026-05-05 19:28 | 32.10200 | 20.26094 | 411 ft | 18 kts | 148° |
| 2026-05-05 19:29 | 32.10081 | 20.26180 | 409 ft | 22 kts | 150° |
| 2026-05-05 19:29 | 32.09941 | 20.26273 | 411 ft | 25 kts | 150° |
| 2026-05-05 19:29 | 32.09781 | 20.26381 | 408 ft | 28 kts | 150° |
| 2026-05-05 19:29 | 32.09602 | 20.26502 | 411 ft | 31 kts | 150° |
| 2026-05-05 19:30 | 32.09411 | 20.26631 | 411 ft | 28 kts | 150° |
| 2026-05-05 19:30 | 32.09244 | 20.26746 | 411 ft | 29 kts | 149° |
| 2026-05-05 19:30 | 32.09079 | 20.26859 | 411 ft | 23 kts | 149° |
| 2026-05-05 19:30 | 32.08930 | 20.26955 | 411 ft | 26 kts | 150° |
| 2026-05-05 19:31 | 32.08802 | 20.27035 | 411 ft | 19 kts | 166° |
| 2026-05-05 19:31 | 32.08750 | 20.26955 | 411 ft | 7 kts | 266° |
| 2026-05-05 19:31 | 32.08751 | 20.26924 | 411 ft | 5 kts | 281° |
| 2026-05-05 19:31 | 32.08772 | 20.26901 | 409 ft | 4 kts | 345° |
| 2026-05-05 19:32 | 32.08801 | 20.26896 | 411 ft | 4 kts | 355° |
| 2026-05-05 19:32 | 32.08825 | 20.26894 | 411 ft | 2 kts | 356° |
| 2026-05-05 19:32 | 32.08828 | 20.26893 | 411 ft | 0 kts | 356° |